Time;durP1;ratioP1;P1;durP2;ratioP2;P2;SDS_P1;SDS_P2;PMS_P1;PMS_P2;Temp;Humidity;BMP_temperature;BMP_pressure;BME280_temperature;BME280_humidity;BME280_pressure;Samples;Min_cycle;Max_cycle;Signal;HPM_P1;HPM_P2
2023/02/22 00:00:21;;;;;;;41.58;38.95;;;;;;;4.86;84.18;98270.94;5033872;28;20481;-75
2023/02/22 00:02:58;;;;;;;44.85;42.10;;;;;;;4.82;85.79;98272.38;5051239;28;20547;-75
2023/02/22 00:05:25;;;;;;;48.78;45.50;;;;;;;4.86;85.40;98271.75;5036418;28;20119;-73
2023/02/22 00:07:50;;;;;;;46.65;43.67;;;;;;;4.88;85.53;98274.22;5050136;28;20100;-74
2023/02/22 00:10:19;;;;;;;45.58;42.65;;;;;;;4.75;83.94;98269.72;5049406;28;20052;-74
2023/02/22 00:12:47;;;;;;;40.22;37.47;;;;;;;4.72;84.81;98263.97;5037569;28;20035;-74
2023/02/22 00:15:13;;;;;;;40.70;38.00;;;;;;;4.60;84.39;98257.59;5053535;28;20463;-74
2023/02/22 00:17:38;;;;;;;39.95;37.55;;;;;;;4.53;84.23;98256.78;5059370;28;20025;-74
2023/02/22 00:20:05;;;;;;;36.92;34.53;;;;;;;4.45;85.01;98259.66;5051296;28;20503;-74
2023/02/22 00:22:31;;;;;;;39.55;36.85;;;;;;;4.42;84.33;98257.38;5053298;28;20021;-74
2023/02/22 00:24:56;;;;;;;37.67;35.35;;;;;;;4.40;84.40;98259.44;5056414;28;20433;-74
2023/02/22 00:27:22;;;;;;;34.92;32.83;;;;;;;4.34;84.06;98257.59;5042512;28;20370;-75
2023/02/22 00:29:48;;;;;;;39.65;37.05;;;;;;;4.40;83.95;98272.78;5050897;28;20070;-74
2023/02/22 00:32:14;;;;;;;37.95;35.45;;;;;;;4.32;83.17;98251.66;5069819;28;20032;-75
2023/02/22 00:34:39;;;;;;;35.67;33.50;;;;;;;4.28;83.66;98261.88;5053091;28;20036;-75
2023/02/22 00:37:05;;;;;;;40.80;38.10;;;;;;;4.25;84.29;98253.50;5070372;28;20484;-74
2023/02/22 00:39:31;;;;;;;36.72;34.33;;;;;;;4.22;84.96;98256.56;5053272;28;20080;-74
2023/02/22 00:41:56;;;;;;;40.65;37.88;;;;;;;4.33;83.79;98263.94;5043402;28;20025;-74
2023/02/22 00:44:22;;;;;;;38.58;36.17;;;;;;;4.29;83.17;98262.72;5053963;28;20040;-73
2023/02/22 00:46:48;;;;;;;36.88;34.58;;;;;;;4.14;83.31;98258.38;5057164;28;20024;-74
2023/02/22 00:49:14;;;;;;;38.67;36.17;;;;;;;4.22;83.55;98261.88;5060616;28;20044;-74
2023/02/22 00:51:41;;;;;;;37.50;35.08;;;;;;;4.13;83.42;98254.06;5030086;28;20021;-74
2023/02/22 00:54:06;;;;;;;37.97;35.55;;;;;;;4.11;84.16;98256.09;5067221;28;20071;-74
2023/02/22 00:56:33;;;;;;;40.25;37.80;;;;;;;4.18;83.79;98256.94;5028060;28;20025;-75
2023/02/22 00:58:59;;;;;;;34.92;32.72;;;;;;;4.10;83.79;98243.84;5041280;28;20036;-74
2023/02/22 01:01:26;;;;;;;38.53;36.28;;;;;;;4.18;84.65;98256.94;5063036;28;20029;-73
2023/02/22 01:03:51;;;;;;;41.55;38.97;;;;;;;4.21;84.85;98250.41;5050016;28;20033;-75
2023/02/22 01:06:17;;;;;;;37.97;35.65;;;;;;;3.98;85.50;98256.09;5020400;28;20025;-74
2023/02/22 01:08:44;;;;;;;35.47;33.30;;;;;;;3.97;84.72;98253.63;5054407;28;20550;-74
2023/02/22 01:11:09;;;;;;;38.22;36.05;;;;;;;3.98;84.30;98232.13;5053564;28;20017;-75
2023/02/22 01:13:34;;;;;;;42.05;39.45;;;;;;;4.05;84.98;98251.59;5049994;28;20400;-76
2023/02/22 01:16:00;;;;;;;38.75;35.92;;;;;;;3.94;84.91;98233.56;5027927;28;20071;-76
2023/02/22 01:18:25;;;;;;;34.63;32.42;;;;;;;3.88;83.92;98250.31;5070490;28;20036;-74
2023/02/22 01:20:51;;;;;;;34.25;32.15;;;;;;;3.84;83.11;98233.09;5046099;28;20024;-75
2023/02/22 01:23:16;;;;;;;35.38;33.17;;;;;;;3.88;83.44;98238.84;5066657;28;20033;-74
2023/02/22 01:25:42;;;;;;;35.08;32.88;;;;;;;3.74;83.30;98232.66;5043577;28;20029;-74
2023/02/22 01:28:07;;;;;;;35.13;33.05;;;;;;;3.63;84.79;98225.25;5037015;28;20033;-74
2023/02/22 01:30:34;;;;;;;36.97;34.78;;;;;;;3.80;84.70;98226.53;5047423;28;20883;-73
2023/02/22 01:33:01;;;;;;;35.08;33.10;;;;;;;3.78;83.94;98236.56;5053692;28;20040;-74
2023/02/22 01:35:29;;;;;;;34.28;32.33;;;;;;;3.77;84.22;98224.28;5056784;28;20028;-74
2023/02/22 01:37:56;;;;;;;36.53;34.42;;;;;;;3.71;83.54;98216.28;5036916;28;20069;-75
2023/02/22 01:40:33;;;;;;;33.10;31.20;;;;;;;3.75;83.41;98221.00;5053168;28;20025;-74
2023/02/22 01:43:01;;;;;;;34.83;33.03;;;;;;;3.82;84.40;98221.00;5055342;28;20533;-74
2023/02/22 01:45:29;;;;;;;35.40;33.58;;;;;;;3.88;84.59;98218.34;5052695;28;20150;-74
2023/02/22 01:48:05;;;;;;;34.08;32.38;;;;;;;3.87;83.70;98216.72;5055978;28;20089;-75
2023/02/22 01:50:33;;;;;;;75.72;37.47;;;;;;;3.96;86.61;98212.84;5059390;28;20041;-75
2023/02/22 01:52:59;;;;;;;79.35;38.80;;;;;;;4.06;87.56;98199.94;5055510;28;20028;-73
2023/02/22 01:55:25;;;;;;;41.80;38.90;;;;;;;4.01;86.33;98205.03;5054103;28;20469;-74
2023/02/22 01:57:51;;;;;;;38.30;36.13;;;;;;;3.90;84.18;98207.47;5073618;28;20542;-74
2023/02/22 02:00:20;;;;;;;43.58;40.15;;;;;;;3.95;87.96;98218.38;5043644;28;20102;-75
2023/02/22 02:02:55;;;;;;;35.35;33.03;;;;;;;3.77;84.92;98205.63;5031404;28;20036;-75
2023/02/22 02:05:23;;;;;;;37.53;35.22;;;;;;;3.78;84.81;98204.59;5054547;28;20039;-75
2023/02/22 02:07:48;;;;;;;37.72;35.42;;;;;;;3.84;85.18;98205.63;5073062;28;20051;-75
2023/02/22 02:10:18;;;;;;;33.90;31.83;;;;;;;3.78;83.97;98196.59;5058815;28;20035;-75
2023/02/22 02:12:45;;;;;;;34.38;32.20;;;;;;;3.75;83.56;98191.69;5055623;28;20020;-75
2023/02/22 02:15:32;;;;;;;35.00;32.72;;;;;;;3.79;83.87;98195.59;5055566;28;20039;-75
2023/02/22 02:18:00;;;;;;;38.80;36.30;;;;;;;3.74;85.14;98198.03;5042245;28;20479;-74
2023/02/22 02:20:50;;;;;;;36.33;34.05;;;;;;;3.79;83.81;98192.94;5065164;28;20067;-74
2023/02/22 02:23:31;;;;;;;35.17;33.05;;;;;;;3.75;83.18;98196.19;5048707;28;20033;-76
2023/02/22 02:26:04;;;;;;;43.95;40.90;;;;;;;3.66;84.17;98189.41;5053693;28;20554;-75
2023/02/22 02:28:54;;;;;;;42.45;38.85;;;;;;;3.11;85.87;98191.25;5042370;28;20488;-75
2023/02/22 02:31:57;;;;;;;45.65;42.15;;;;;;;3.43;86.10;98192.41;5055244;28;20071;-74
2023/02/22 02:34:48;;;;;;;42.97;39.65;;;;;;;3.52;87.48;98191.22;5053753;28;20040;-74
2023/02/22 02:37:29;;;;;;;47.88;44.17;;;;;;;3.38;85.95;98189.53;5052018;28;20029;-74
2023/02/22 02:40:17;;;;;;;40.55;37.67;;;;;;;3.35;84.87;98187.25;5035405;28;20106;-75
2023/02/22 02:43:21;;;;;;;41.83;39.03;;;;;;;3.35;85.19;98187.25;5049376;28;20508;-76
2023/02/22 02:45:54;;;;;;;38.30;35.80;;;;;;;3.27;84.56;98187.41;5079195;23;20546;-74
2023/02/22 02:48:24;;;;;;;37.50;34.95;;;;;;;3.42;84.01;98174.78;5054758;28;20033;-74
2023/02/22 02:50:50;;;;;;;36.22;33.90;;;;;;;3.32;85.05;98185.00;5071419;28;20458;-74
2023/02/22 02:53:20;;;;;;;36.55;34.25;;;;;;;3.35;83.68;98179.28;5057140;28;20059;-74
2023/02/22 02:55:45;;;;;;;35.53;33.30;;;;;;;3.27;84.01;98176.78;5046274;28;20032;-72
2023/02/22 02:58:20;;;;;;;37.00;34.45;;;;;;;3.18;84.20;98180.63;5045993;28;20021;-72
2023/02/22 03:00:45;;;;;;;37.60;34.70;;;;;;;3.01;84.12;98171.34;5050964;28;20549;-74
2023/02/22 03:03:33;;;;;;;37.33;34.13;;;;;;;3.03;84.58;98174.63;5052054;28;20025;-76
2023/02/22 03:06:10;;;;;;;428.20;71.35;;;;;;;2.72;86.42;98175.91;5050884;28;20041;-75
2023/02/22 03:08:44;;;;;;;317.55;47.60;;;;;;;2.88;86.86;98165.94;5034397;28;20041;-75
2023/02/22 03:11:14;;;;;;;335.33;58.10;;;;;;;2.91;86.44;98177.03;5051364;28;20036;-74
2023/02/22 03:14:01;;;;;;;323.00;62.72;;;;;;;2.99;86.45;98173.41;5034397;28;20028;-74
2023/02/22 03:16:43;;;;;;;310.75;63.33;;;;;;;2.98;86.26;98177.06;5050958;28;20041;-75
2023/02/22 03:19:21;;;;;;;126.90;52.80;;;;;;;3.03;86.39;98169.31;5034261;28;20041;-73
2023/02/22 03:21:52;;;;;;;104.70;45.75;;;;;;;3.06;86.38;98171.56;5063657;28;20029;-74
2023/02/22 03:24:28;;;;;;;110.75;53.40;;;;;;;3.05;86.34;98167.28;5030742;28;20040;-74
2023/02/22 03:27:01;;;;;;;126.63;47.97;;;;;;;3.18;86.97;98168.16;5037554;28;20037;-75
2023/02/22 03:29:29;;;;;;;378.70;63.97;;;;;;;3.11;87.44;98171.78;5050851;28;20404;-75
2023/02/22 03:32:00;;;;;;;278.38;76.13;;;;;;;2.96;87.48;98152.50;5050730;28;20035;-75
2023/02/22 03:34:36;;;;;;;237.93;52.08;;;;;;;3.06;87.77;98160.91;5034342;28;20025;-74
2023/02/22 03:37:12;;;;;;;389.45;68.82;;;;;;;3.06;87.41;98158.25;5050801;28;20040;-74
2023/02/22 03:39:40;;;;;;;581.17;114.32;;;;;;;2.89;86.74;98156.97;5050959;28;20427;-73
2023/02/22 03:42:11;;;;;;;584.50;95.13;;;;;;;2.72;88.72;98167.91;5050437;28;20032;-75
2023/02/22 03:44:39;;;;;;;510.70;118.90;;;;;;;2.65;88.08;98161.75;5050178;28;20531;-74
2023/02/22 03:47:08;;;;;;;217.85;41.03;;;;;;;2.95;88.45;98161.50;5050240;28;20047;-75
2023/02/22 03:49:36;;;;;;;238.15;43.85;;;;;;;2.93;88.58;98160.88;5033732;28;20495;-75
2023/02/22 03:52:04;;;;;;;373.33;63.83;;;;;;;2.96;87.50;98152.50;5050518;28;20095;-75
2023/02/22 03:54:31;;;;;;;292.92;51.53;;;;;;;3.05;88.23;98156.63;5050457;28;20035;-74
2023/02/22 03:57:07;;;;;;;329.58;68.38;;;;;;;2.97;88.25;98151.47;5050129;28;20024;-73
2023/02/22 03:59:36;;;;;;;539.67;89.45;;;;;;;2.93;88.07;98152.88;5050754;28;20025;-72
2023/02/22 04:02:01;;;;;;;440.08;70.60;;;;;;;2.93;88.74;98152.88;5050022;28;20480;-74
2023/02/22 04:04:26;;;;;;;304.52;52.88;;;;;;;2.94;88.22;98162.53;5029944;28;20445;-74
2023/02/22 04:06:52;;;;;;;337.23;50.08;;;;;;;3.03;87.93;98158.69;5028967;28;20025;-73
2023/02/22 04:09:18;;;;;;;243.10;62.03;;;;;;;3.01;88.88;98160.72;5033406;28;20132;-73
2023/02/22 04:11:43;;;;;;;281.00;53.50;;;;;;;3.14;88.33;98148.28;5033380;28;20086;-75
2023/02/22 04:14:10;;;;;;;248.20;71.30;;;;;;;3.16;87.94;98159.56;5051050;28;20044;-75
2023/02/22 04:16:35;;;;;;;194.27;50.45;;;;;;;3.19;88.23;98159.16;5049144;28;20399;-75
2023/02/22 04:19:05;;;;;;;230.38;57.20;;;;;;;3.11;87.42;98161.16;5033734;28;20115;-75
2023/02/22 04:21:31;;;;;;;420.40;92.93;;;;;;;3.10;86.98;98156.88;5033216;28;20526;-74
2023/02/22 04:23:58;;;;;;;108.65;33.92;;;;;;;3.18;87.74;98156.69;5033065;28;20029;-74
2023/02/22 04:26:23;;;;;;;113.13;38.20;;;;;;;3.20;87.83;98157.31;5049529;28;20043;-73
2023/02/22 04:28:53;;;;;;;629.33;105.97;;;;;;;3.05;87.83;98161.97;5049671;28;20080;-74
2023/02/22 04:31:21;;;;;;;516.33;78.55;;;;;;;2.60;88.27;98152.69;5049743;28;20064;-74
2023/02/22 04:33:48;;;;;;;191.63;51.63;;;;;;;2.57;89.30;98159.22;5033115;28;20025;-74
2023/02/22 04:36:17;;;;;;;472.50;64.07;;;;;;;2.62;89.16;98162.13;5063440;28;20033;-75
2023/02/22 04:38:44;;;;;;;236.77;46.35;;;;;;;2.77;88.58;98149.56;5049805;28;20016;-76
2023/02/22 04:41:10;;;;;;;222.43;38.25;;;;;;;2.80;87.89;98149.13;5033046;28;20562;-75
2023/02/22 04:43:36;;;;;;;308.17;37.13;;;;;;;2.72;88.25;98156.47;5049577;28;20021;-75
2023/02/22 04:46:11;;;;;;;291.35;40.15;;;;;;;2.53;88.70;98150.00;5030733;28;20100;-74
2023/02/22 04:48:36;;;;;;;460.23;65.70;;;;;;;2.70;88.04;98148.69;5024084;28;20499;-74
2023/02/22 04:51:02;;;;;;;428.63;57.53;;;;;;;2.63;88.95;98147.00;5050804;28;20035;-73
2023/02/22 04:53:29;;;;;;;475.60;98.85;;;;;;;2.54;89.34;98135.72;5049574;28;20499;-74
2023/02/22 04:55:54;;;;;;;369.25;83.05;;;;;;;2.57;88.32;98137.97;5032784;28;20071;-75
2023/02/22 04:58:20;;;;;;;301.40;62.00;;;;;;;2.76;88.86;98145.25;5049537;28;20036;-76
2023/02/22 05:00:46;;;;;;;196.45;46.22;;;;;;;2.65;88.81;98143.13;5033115;28;20028;-76
2023/02/22 05:03:12;;;;;;;494.80;54.65;;;;;;;2.66;88.22;98136.78;5049136;28;20411;-76
2023/02/22 05:05:37;;;;;;;565.97;83.80;;;;;;;2.60;88.93;98148.22;5065904;28;20044;-74
2023/02/22 05:08:03;;;;;;;648.80;140.38;;;;;;;2.29;90.13;98133.69;5050741;28;20037;-76
2023/02/22 05:10:28;;;;;;;766.20;149.20;;;;;;;2.31;90.25;98135.13;5049410;28;20545;-75
2023/02/22 05:12:54;;;;;;;346.15;79.88;;;;;;;2.38;90.23;98132.53;5032806;28;20554;-75
2023/02/22 05:15:20;;;;;;;613.92;102.50;;;;;;;2.64;89.55;98133.50;5032306;28;20099;-75
2023/02/22 05:17:46;;;;;;;297.73;69.68;;;;;;;2.68;88.60;98134.75;5032734;28;20033;-72
2023/02/22 05:20:29;;;;;;;158.43;46.75;;;;;;;2.73;88.93;98132.31;5049634;28;20075;-72
2023/02/22 05:22:56;;;;;;;174.68;42.10;;;;;;;2.69;88.13;98131.09;5049125;28;20029;-73
2023/02/22 05:25:22;;;;;;;339.60;74.35;;;;;;;2.72;88.39;98135.19;5032165;28;20377;-72
2023/02/22 05:27:52;;;;;;;512.10;77.45;;;;;;;2.64;88.59;98127.38;5049507;28;20044;-74
2023/02/22 05:30:19;;;;;;;573.92;260.13;;;;;;;2.51;89.58;98129.94;5060714;28;20037;-74
2023/02/22 05:32:45;;;;;;;499.85;113.80;;;;;;;2.13;89.19;98123.34;5058024;28;20059;-73
2023/02/22 05:35:10;;;;;;;473.75;86.00;;;;;;;2.09;90.28;98133.53;5053880;28;20061;-73
2023/02/22 05:37:36;;;;;;;491.05;82.40;;;;;;;2.28;89.52;98124.06;5052817;28;20021;-74
2023/02/22 05:40:01;;;;;;;233.30;37.22;;;;;;;2.49;89.38;98124.84;5052566;28;20029;-73
2023/02/22 05:42:26;;;;;;;309.35;61.28;;;;;;;2.58;88.09;98128.16;5052613;28;20365;-73
2023/02/22 05:44:52;;;;;;;120.05;32.22;;;;;;;2.73;88.29;98120.91;5053501;28;20033;-73
2023/02/22 05:47:18;;;;;;;135.65;44.50;;;;;;;2.54;88.65;98101.16;5052477;28;20544;-73
2023/02/22 05:49:44;;;;;;;163.73;34.92;;;;;;;2.70;88.67;98116.78;5052811;28;20120;-74
2023/02/22 05:52:09;;;;;;;83.80;17.60;;;;;;;2.37;88.15;98094.50;5052478;28;20023;-73
2023/02/22 05:54:34;;;;;;;102.57;40.65;;;;;;;2.32;87.81;98110.22;5052572;28;20029;-73
2023/02/22 05:57:00;;;;;;;51.10;26.17;;;;;;;2.39;87.73;98103.09;5046639;28;20111;-74
2023/02/22 05:59:26;;;;;;;54.50;29.05;;;;;;;2.32;87.07;98107.56;5060777;28;20037;-74
2023/02/22 06:01:51;;;;;;;46.67;30.17;;;;;;;2.17;87.57;98109.47;5058226;28;20029;-75
2023/02/22 06:04:17;;;;;;;87.45;34.85;;;;;;;2.32;87.43;98118.19;5052173;28;20032;-74
2023/02/22 06:06:42;;;;;;;71.65;33.97;;;;;;;2.33;87.14;98109.22;5065706;28;20516;-74
2023/02/22 06:09:08;;;;;;;99.57;39.90;;;;;;;2.40;87.56;98115.38;5052425;28;20116;-74
2023/02/22 06:11:33;;;;;;;250.13;55.17;;;;;;;2.13;87.16;98102.91;5065411;28;20021;-74
2023/02/22 06:13:58;;;;;;;59.58;23.63;;;;;;;2.45;86.46;98117.47;5052060;28;20115;-75
2023/02/22 06:16:24;;;;;;;78.57;39.78;;;;;;;2.31;86.63;98111.22;5053219;28;20029;-74
2023/02/22 06:18:49;;;;;;;83.22;39.63;;;;;;;2.20;87.38;98114.41;5053973;28;20124;-74
2023/02/22 06:21:16;;;;;;;71.63;29.92;;;;;;;2.42;86.72;98108.03;5048603;28;20025;-74
2023/02/22 06:23:41;;;;;;;101.57;42.10;;;;;;;2.24;86.68;98098.91;5035384;28;20044;-74
2023/02/22 06:26:06;;;;;;;165.15;38.25;;;;;;;2.33;86.56;98108.38;5053117;28;20075;-73
2023/02/22 06:28:32;;;;;;;91.95;33.85;;;;;;;2.32;87.01;98112.03;5052056;28;20029;-74
2023/02/22 06:30:57;;;;;;;171.68;54.15;;;;;;;2.19;87.64;98104.81;5048539;28;20048;-74
2023/02/22 06:33:22;;;;;;;211.82;57.42;;;;;;;1.99;87.48;98114.44;5051796;28;20098;-75
2023/02/22 06:35:48;;;;;;;90.97;44.03;;;;;;;1.88;88.60;98122.94;5035089;28;20116;-74
2023/02/22 06:38:23;;;;;;;90.40;41.42;;;;;;;1.84;88.11;98129.66;5035033;28;20067;-74
2023/02/22 06:40:49;;;;;;;103.00;44.92;;;;;;;1.90;87.96;98118.25;5064612;28;20036;-74
2023/02/22 06:43:14;;;;;;;111.47;45.85;;;;;;;1.82;88.59;98129.03;5051430;28;20115;-75
2023/02/22 06:45:40;;;;;;;149.57;44.85;;;;;;;1.93;87.24;98133.81;5034615;28;20532;-72
2023/02/22 06:48:05;;;;;;;79.28;35.60;;;;;;;2.14;87.62;98131.13;5058968;28;20081;-74
2023/02/22 06:50:31;;;;;;;182.90;55.67;;;;;;;1.91;88.32;98127.88;5041353;28;20033;-74
2023/02/22 06:52:57;;;;;;;91.65;32.75;;;;;;;2.29;87.20;98137.16;5047288;28;20116;-74
2023/02/22 06:55:27;;;;;;;72.80;35.35;;;;;;;2.25;86.88;98119.13;5048092;28;20024;-74
2023/02/22 06:57:53;;;;;;;58.42;31.42;;;;;;;2.33;86.20;98135.78;5059591;28;20029;-74
2023/02/22 07:00:21;;;;;;;56.40;32.00;;;;;;;2.32;86.48;98131.47;5056392;28;20547;-74
2023/02/22 07:02:49;;;;;;;54.63;33.35;;;;;;;2.53;86.77;98136.72;5059995;28;20032;-72
2023/02/22 07:05:18;;;;;;;36.38;32.63;;;;;;;2.66;86.15;98131.47;5059756;28;20025;-74
2023/02/22 07:07:43;;;;;;;52.17;38.58;;;;;;;2.48;86.38;98138.31;5065444;28;20035;-74
2023/02/22 07:10:18;;;;;;;40.25;37.20;;;;;;;2.53;86.71;98130.56;5040936;28;20396;-74
2023/02/22 07:12:44;;;;;;;43.08;39.75;;;;;;;2.58;86.64;98123.66;5057329;28;20044;-74
2023/02/22 07:15:09;;;;;;;36.47;33.65;;;;;;;2.68;85.63;98129.44;5041213;28;20025;-74
2023/02/22 07:17:35;;;;;;;49.35;45.20;;;;;;;2.70;85.64;98121.28;5056606;28;20097;-74
2023/02/22 07:20:00;;;;;;;58.88;53.50;;;;;;;2.73;85.99;98107.59;5060492;28;20048;-74
2023/02/22 07:22:26;;;;;;;43.92;40.53;;;;;;;2.99;86.36;98125.53;5051259;28;20039;-74
2023/02/22 07:24:51;;;;;;;39.03;36.08;;;;;;;2.95;86.27;98119.75;5043275;28;20164;-73
2023/02/22 07:27:16;;;;;;;37.25;34.58;;;;;;;3.10;86.29;98116.97;5042368;28;20385;-74
2023/02/22 07:29:42;;;;;;;36.10;33.80;;;;;;;2.95;86.31;98119.75;5060108;28;20032;-74
2023/02/22 07:32:08;;;;;;;38.25;35.42;;;;;;;2.97;85.61;98122.22;5044396;28;20032;-74
2023/02/22 07:34:34;;;;;;;36.03;33.30;;;;;;;2.92;85.62;98124.66;5053451;28;20021;-74
2023/02/22 07:36:59;;;;;;;52.05;32.55;;;;;;;2.77;86.76;98117.66;5034255;28;20033;-74
2023/02/22 07:39:25;;;;;;;53.88;38.17;;;;;;;2.91;86.23;98109.72;5050508;28;20550;-74
2023/02/22 07:41:51;;;;;;;37.97;34.60;;;;;;;3.12;86.13;98120.25;5034395;28;20036;-74
2023/02/22 07:44:23;;;;;;;37.15;33.65;;;;;;;3.10;86.50;98116.97;5039151;28;20023;-74
2023/02/22 07:46:49;;;;;;;39.88;36.80;;;;;;;3.07;86.50;98122.66;5042550;28;20068;-74
2023/02/22 07:49:15;;;;;;;45.53;41.28;;;;;;;2.98;87.67;98108.72;5033775;28;20099;-74
2023/02/22 07:51:40;;;;;;;44.35;40.97;;;;;;;3.12;87.43;98120.25;5049804;28;20061;-75
2023/02/22 07:54:05;;;;;;;43.67;40.45;;;;;;;3.36;86.98;98119.72;5050397;28;20107;-73
2023/02/22 07:56:31;;;;;;;40.38;36.78;;;;;;;3.17;87.11;98109.81;5061179;28;20039;-74
2023/02/22 07:58:56;;;;;;;53.10;42.90;;;;;;;3.31;86.88;98114.16;5056670;28;20020;-74
2023/02/22 08:01:23;;;;;;;44.92;38.28;;;;;;;3.46;86.74;98112.16;5059766;28;20488;-73
2023/02/22 08:03:48;;;;;;;58.90;49.38;;;;;;;3.59;86.37;98106.03;5050171;28;20116;-75
2023/02/22 08:06:14;;;;;;;49.90;45.47;;;;;;;3.75;86.13;98105.66;5050097;28;20116;-74
2023/02/22 08:08:39;;;;;;;80.93;52.25;;;;;;;3.57;87.65;98110.75;5049419;28;20400;-75
2023/02/22 08:11:05;;;;;;;42.55;38.88;;;;;;;3.78;87.24;98110.59;5033675;28;20044;-75
2023/02/22 08:13:30;;;;;;;46.63;42.60;;;;;;;3.94;85.78;98099.53;5030197;28;20053;-73
2023/02/22 08:15:56;;;;;;;43.72;40.40;;;;;;;4.15;85.99;98100.13;5040182;28;20021;-75
2023/02/22 08:18:22;;;;;;;44.78;41.05;;;;;;;3.95;86.40;98096.66;5061911;28;20480;-75
2023/02/22 08:20:50;;;;;;;44.15;40.78;;;;;;;4.13;86.36;98104.03;5034462;28;20125;-75
2023/02/22 08:23:17;;;;;;;42.53;38.72;;;;;;;3.99;86.82;98121.03;5019944;28;20471;-75
2023/02/22 08:25:42;;;;;;;45.03;41.00;;;;;;;3.78;87.77;98106.06;5033596;28;20123;-75
2023/02/22 08:28:10;;;;;;;48.60;44.40;;;;;;;4.03;87.75;98109.78;5050254;28;20060;-75
2023/02/22 08:30:37;;;;;;;43.90;40.45;;;;;;;4.07;87.08;98112.84;5033906;28;20029;-75
2023/02/22 08:33:02;;;;;;;42.33;39.28;;;;;;;4.33;86.85;98109.34;5063149;28;20024;-75
2023/02/22 08:35:29;;;;;;;50.85;45.42;;;;;;;4.12;87.21;98119.19;5061145;28;20683;-74
2023/02/22 08:37:57;;;;;;;47.92;43.58;;;;;;;4.22;87.49;98103.59;5052551;28;20025;-77
2023/02/22 08:40:24;;;;;;;48.72;44.67;;;;;;;4.52;86.60;98105.81;5050162;28;20037;-73
2023/02/22 08:42:50;;;;;;;45.47;41.97;;;;;;;4.71;86.65;98118.31;5051079;28;20513;-75
2023/02/22 08:45:16;;;;;;;47.60;43.83;;;;;;;4.59;87.59;98112.78;5033497;28;20373;-75
2023/02/22 08:47:42;;;;;;;45.00;41.65;;;;;;;4.90;86.19;98118.22;5069814;22;20105;-75
2023/02/22 08:50:15;;;;;;;48.65;44.85;;;;;;;5.02;86.49;98107.72;5043532;28;20040;-74
2023/02/22 08:52:41;;;;;;;51.55;47.63;;;;;;;5.24;86.08;98113.59;5053331;28;20441;-75
2023/02/22 08:55:06;;;;;;;49.70;45.78;;;;;;;5.16;86.79;98111.97;5070980;28;20169;-75
2023/02/22 08:57:31;;;;;;;49.00;45.47;;;;;;;5.30;85.83;98105.53;5070823;28;20033;-74
2023/02/22 08:59:57;;;;;;;48.58;44.90;;;;;;;5.41;86.08;98112.88;5062171;28;20036;-76
2023/02/22 09:02:23;;;;;;;50.28;46.17;;;;;;;5.23;87.92;98112.75;5061384;28;20111;-75
2023/02/22 09:04:49;;;;;;;49.83;45.47;;;;;;;5.37;88.23;98109.00;5072853;28;20389;-75
2023/02/22 09:07:15;;;;;;;53.42;48.35;;;;;;;5.42;88.13;98114.53;5053975;28;20033;-75
2023/02/22 09:09:44;;;;;;;53.38;48.95;;;;;;;5.54;87.31;98120.84;5053763;28;20501;-73
2023/02/22 09:12:10;;;;;;;53.78;49.42;;;;;;;5.69;87.00;98117.03;5058101;28;20093;-76
2023/02/22 09:14:35;;;;;;;52.05;47.67;;;;;;;5.62;87.66;98116.28;5063304;28;20036;-75
2023/02/22 09:17:01;;;;;;;57.15;51.65;;;;;;;5.56;85.96;98108.06;5073316;28;20036;-72
2023/02/22 09:19:26;;;;;;;55.20;50.50;;;;;;;5.72;87.19;98117.41;5073771;28;20151;-75
2023/02/22 09:21:56;;;;;;;52.80;48.63;;;;;;;5.70;87.77;98118.66;5056740;28;20032;-74
2023/02/22 09:24:22;;;;;;;51.80;47.67;;;;;;;5.68;87.11;98115.41;5053193;28;20028;-75
2023/02/22 09:26:52;;;;;;;55.97;51.67;;;;;;;5.56;88.51;98113.41;5052217;28;20408;-75
2023/02/22 09:29:21;;;;;;;51.50;47.75;;;;;;;5.73;88.04;98112.91;5057447;28;20079;-75
2023/02/22 09:31:47;;;;;;;52.40;48.65;;;;;;;6.07;86.18;98109.78;5044236;28;20111;-76
2023/02/22 09:34:14;;;;;;;51.05;47.53;;;;;;;6.22;86.24;98107.63;5070371;28;20063;-75
2023/02/22 09:36:40;;;;;;;50.28;46.88;;;;;;;6.44;84.88;98106.19;5036326;28;20025;-76
2023/02/22 09:39:06;;;;;;;50.70;47.30;;;;;;;6.40;86.20;98096.97;5066900;28;20036;-75
2023/02/22 09:41:49;;;;;;;54.97;51.25;;;;;;;6.35;86.16;98096.81;5056305;28;20471;-76
2023/02/22 09:44:19;;;;;;;48.92;45.63;;;;;;;6.35;86.38;98106.72;5055634;28;20680;-77
2023/02/22 09:46:46;;;;;;;52.20;48.50;;;;;;;6.55;86.14;98101.97;5052698;28;20036;-75
2023/02/22 09:49:12;;;;;;;52.17;48.65;;;;;;;6.69;85.00;98109.66;5049723;28;20391;-76
2023/02/22 09:51:41;;;;;;;53.47;50.00;;;;;;;6.77;85.60;98109.34;5052319;28;20037;-76
2023/02/22 09:54:14;;;;;;;53.90;50.30;;;;;;;6.79;85.36;98099.25;5069918;28;20028;-76
2023/02/22 09:56:39;;;;;;;55.13;51.60;;;;;;;6.83;85.79;98105.81;5072675;28;20052;-76
2023/02/22 09:59:06;;;;;;;56.42;52.83;;;;;;;7.10;84.80;98105.47;5055860;28;20496;-75
2023/02/22 10:01:32;;;;;;;55.60;52.05;;;;;;;6.90;85.46;98109.22;5052555;28;20056;-76
2023/02/22 10:04:04;;;;;;;53.67;50.35;;;;;;;7.05;84.90;98097.31;5070679;28;20645;-76
2023/02/22 10:06:32;;;;;;;55.15;51.50;;;;;;;7.08;84.80;98099.53;5073727;28;20032;-74
2023/02/22 10:08:59;;;;;;;52.53;49.13;;;;;;;7.16;84.92;98099.25;5053747;28;20047;-76
2023/02/22 10:11:33;;;;;;;55.70;52.25;;;;;;;7.14;84.87;98095.97;5072818;28;20116;-76
2023/02/22 10:14:02;;;;;;;55.72;52.30;;;;;;;7.39;84.80;98104.72;5061091;28;20725;-76
2023/02/22 10:16:46;;;;;;;53.28;50.05;;;;;;;7.28;84.73;98100.13;5055829;28;20024;-76
2023/02/22 10:19:28;;;;;;;56.53;53.22;;;;;;;7.39;84.85;98089.47;5072043;28;20043;-76
2023/02/22 10:22:03;;;;;;;53.13;49.95;;;;;;;7.44;84.89;98091.47;5054424;28;20033;-76
2023/02/22 10:24:45;;;;;;;55.13;51.83;;;;;;;7.45;84.39;98087.72;5085312;28;20032;-76
2023/02/22 10:27:18;;;;;;;54.45;51.15;;;;;;;7.76;83.83;98084.81;5073448;28;20063;-76
2023/02/22 10:29:48;;;;;;;55.60;52.40;;;;;;;7.59;84.39;98073.09;5072230;28;20036;-74
2023/02/22 10:32:19;;;;;;;53.50;50.30;;;;;;;7.96;84.57;98079.94;5055270;28;20036;-76
2023/02/22 10:34:47;;;;;;;55.45;52.35;;;;;;;8.08;83.32;98079.97;5071744;28;20028;-76
2023/02/22 10:37:20;;;;;;;51.55;48.70;;;;;;;8.31;83.20;98072.78;5051911;28;20388;-76
2023/02/22 10:39:47;;;;;;;51.83;48.92;;;;;;;8.42;83.13;98073.03;5054401;28;20036;-76
2023/02/22 10:42:12;;;;;;;48.75;45.97;;;;;;;8.70;81.77;98073.97;5038606;28;20031;-75
2023/02/22 10:44:38;;;;;;;45.85;43.08;;;;;;;9.03;80.80;98078.69;5051949;28;20033;-76
2023/02/22 10:47:11;;;;;;;39.05;36.55;;;;;;;9.29;79.30;98070.06;5064884;28;20082;-76
2023/02/22 10:49:40;;;;;;;34.50;32.30;;;;;;;9.58;78.62;98069.03;5066311;28;20040;-76
2023/02/22 10:52:13;;;;;;;29.50;27.50;;;;;;;9.66;77.33;98065.13;5063451;28;20025;-76
2023/02/22 10:54:41;;;;;;;23.98;22.15;;;;;;;9.91;77.20;98062.06;5053717;28;20033;-76
2023/02/22 10:57:07;;;;;;;24.10;22.20;;;;;;;10.07;76.89;98066.63;5068262;28;20554;-75
2023/02/22 10:59:34;;;;;;;18.70;17.15;;;;;;;10.13;75.12;98060.28;5051345;28;20040;-75
2023/02/22 11:02:07;;;;;;;17.45;16.05;;;;;;;10.20;75.32;98044.81;5067464;28;20026;-76
2023/02/22 11:04:46;;;;;;;16.73;15.43;;;;;;;10.36;74.71;98044.00;5071270;28;20036;-75
2023/02/22 11:07:41;;;;;;;16.10;14.70;;;;;;;10.33;75.53;98049.88;5051274;28;20041;-76
2023/02/22 11:10:08;;;;;;;28.15;26.35;;;;;;;10.19;78.38;98044.00;5070678;28;20065;-75
2023/02/22 11:12:38;;;;;;;27.05;24.95;;;;;;;10.13;77.58;98044.16;5072984;28;20020;-76
2023/02/22 11:15:25;;;;;;;26.70;24.50;;;;;;;10.27;77.00;98042.75;5067605;28;20119;-76
2023/02/22 11:17:54;;;;;;;25.33;23.33;;;;;;;10.36;76.82;98035.94;5070954;28;20553;-75
2023/02/22 11:20:25;;;;;;;29.05;27.05;;;;;;;10.37;78.23;98045.63;5071071;28;20082;-76
2023/02/22 11:22:55;;;;;;;27.88;25.98;;;;;;;10.53;76.73;98031.31;5070998;28;20036;-76
2023/02/22 11:25:24;;;;;;;24.38;22.50;;;;;;;10.83;76.34;98033.59;5070896;28;20040;-76
2023/02/22 11:27:50;;;;;;;22.42;20.83;;;;;;;10.41;76.31;98019.81;5070820;28;20558;-76